Aviation Digital Data Service (ADDS)

Output produced by METARs form (1100 UTC 25 October 2020)
found at http://aviationweather.gov/metar/data/
 
KOEO 251055Z AUTO 33005KT 10SM OVC047 M03/M06 A3040 RMK AO2 T10301060